首页
METAR-TAF:

METAR-TAF

机场 :

拉罗歇尔, 法国

纬度: 46-10-45N, 经度: 1-11-43W, 海拔: 23米

当前天气观测

该预报发布于15分钟前的07:00 UTC
风速9节,风向
温度 3°C
湿度 93%
气压 1008 hPa
能見度: 4000
轻雾

METAR: LFBH 170700Z AUTO 09009KT 4000 BR NSC 03/02 Q1008 TEMPO 0400 FG VV///

时间: 08:15 (07:15 UTC)

预报

该预报发布于2小时和15分钟前的05:00 UTC
预报有效从17日的 06点(UTC)到 18日的 06点(UTC)
风速4节,风向
能見度: 6000
多云层高于2500英尺
几率 40%
从 17日的 06点(UTC)到 17日的 10点(UTC)
能見度: 3000
轻雾
几率 30% :
短暂存在
从 17日的 06点(UTC)到 17日的 09点(UTC)
能見度: 0400
几率 40%
从 17日的 10点(UTC)到 17日的 14点(UTC)
阴天层高于500英尺
几率 40%
从 17日的 22点(UTC)到 18日的 06点(UTC)
能見度: 3000
轻雾
几率 30%
从 18日的 01点(UTC)到 18日的 06点(UTC)
阴天层高于400英尺

TAF: LFBH 170500Z 1706/1806 10004KT 6000 BKN025 PROB40 1706/1710 3000 BR PROB30 TEMPO 1706/1709 0400 FG VV/// PROB40 1710/1714 OVC005 PROB40 1722/1806 3000 BR PROB30 1801/1806 OVC004

超过4000个机场的气象观测和天气预报(METAR&TAF报告)。

可查询的气象台以黄色和红色小点在地图上表示。

将鼠标移到小点上方,可查看气象台名称。

然后点击查看天气观测和预报。

如需切换地图:点击带黑十字的绿色按钮放大地图;点击带横线的绿色按钮缩小地图;或者点击绿色箭头查看邻近地区的地图。


METAR-TAF: